Flight Track Log - Related Links

Times and Time Zones

All times are in EST time to prevent confusion due to time zone crossing. See the SWA776 flight status page for this flight to view local times or setup timezone preferences in your user account.

Time Position Orientation Groundspeed Altitude Reporting Facility
EST Latitude Longitude Course Direction KTS MPH feet Rate Location/Type
Sat 10:58:10 AM 37.6400 -122.3675 North 157 181 1,100  Level Oakland Center
Sat 10:59:11 AM 37.6931 -122.3664 North 196 226 3,200 2,459 Climbing Oakland Center
Sat 11:00:12 AM 37.6881 -122.4200 263° West 221 254 6,100 2,852 Climbing Oakland Center
Sat 11:01:13 AM 37.6217 -122.4414 194° South 242 278 9,000 2,902 Climbing Oakland Center
Sat 11:02:14 AM 37.5372 -122.4578 189° South 322 371 12,000 3,049 Climbing Oakland Center
Sat 11:03:15 AM 37.4681 -122.3819 139° Southeast 332 382 15,200 2,902 Climbing Oakland Center
Sat 11:04:16 AM 37.4033 -122.2819 129° Southeast 365 420 17,900 2,951 Climbing Oakland Center
Sat 11:05:17 AM 37.3217 -122.1575 130° Southeast 386 444 21,200 2,803 Climbing Oakland Center
Sat 11:06:18 AM 37.2483 -122.0478 130° Southeast 408 470 23,600 2,262 Climbing Oakland Center
Sat 11:07:19 AM 37.1728 -121.9319 129° Southeast 426 490 25,800 1,967 Climbing Oakland Center
Sat 11:08:20 AM 37.0911 -121.8100 130° Southeast 446 513 27,600 1,610 Climbing Oakland Center
Sat 11:09:22 AM 37.0078 -121.6900 131° Southeast 467 537 29,100 1,512 Climbing Oakland Center
Sat 11:10:23 AM 36.9206 -121.5642 131° Southeast 480 552 30,700 1,475 Climbing Oakland Center
Sat 11:11:24 AM 36.8347 -121.4278 128° Southeast 497 572 32,100 1,475 Climbing Oakland Center
Sat 11:12:25 AM 36.7447 -121.3042 132° Southeast 504 580 33,700 1,672 Climbing Oakland Center
Sat 11:13:26 AM 36.6356 -121.1419 130° Southeast 507 583 35,500 1,525 Climbing Oakland Center
Sat 11:14:27 AM 36.5447 -121.0047 129° Southeast 512 589 36,800 1,279 Climbing Oakland Center
Sat 11:15:28 AM 36.4636 -120.8614 125° Southeast 509 586 38,100 1,082 Climbing Oakland Center
Sat 11:16:29 AM 36.4000 -120.7072 117° Southeast 503 579 39,000 439 Climbing Oakland Center
Sat 11:17:31 AM 36.3336 -120.5550 118° Southeast 501 577 39,000  Level Oakland Center
Sat 11:18:32 AM 36.2678 -120.4028 118° Southeast 500 575 39,000  Level Oakland Center
Sat 11:19:33 AM 36.2014 -120.2517 119° Southeast 499 574 39,000  Level Oakland Center
Sat 11:20:34 AM 36.1356 -120.1011 118° Southeast 497 572 39,000  Level Oakland Center
Sat 11:21:35 AM 36.0708 -119.9508 118° Southeast 495 570 39,000  Level Oakland Center
Sat 11:22:37 AM 36.0056 -119.8036 119° Southeast 490 564 39,000  Level Oakland Center
Sat 11:23:38 AM 35.9397 -119.6544 119° Southeast 490 564 39,000  Level Oakland Center
Sat 11:24:39 AM 35.8728 -119.5069 119° Southeast 491 565 39,000  Level Oakland Center
Sat 11:25:40 AM 35.8089 -119.3594 118° Southeast 489 563 39,000  Level Oakland Center
Sat 11:26:41 AM 35.7286 -119.1842 119° Southeast 489 563 39,000  Level Oakland Center
Sat 11:27:54 AM 35.6450 -119.0053 120° Southeast 494 568 39,000  Level Los Angeles Center
Sat 11:28:56 AM 35.5789 -118.8589 119° Southeast 492 566 39,000  Level Los Angeles Center
Sat 11:29:58 AM 35.5139 -118.7128 119° Southeast 490 564 39,000  Level Los Angeles Center
Sat 11:31:00 AM 35.4469 -118.5664 119° Southeast 491 565 39,000  Level Los Angeles Center
Sat 11:32:02 AM 35.3731 -118.4044 119° Southeast 492 566 39,000  Level Los Angeles Center
Sat 11:33:04 AM 35.3042 -118.2600 120° Southeast 492 566 39,000  Level Los Angeles Center
Sat 11:34:06 AM 35.2367 -118.1131 119° Southeast 496 571 39,000  Level Los Angeles Center
Sat 11:35:08 AM 35.1681 -117.9675 120° Southeast 496 571 39,000  Level Los Angeles Center
Sat 11:36:11 AM 35.0997 -117.8239 120° Southeast 494 568 39,000  Level Los Angeles Center
Sat 11:37:13 AM 35.0306 -117.6758 120° Southeast 496 571 39,000  Level Los Angeles Center
Sat 11:38:15 AM 34.9528 -117.5111 120° Southeast 497 572 39,000  Level Los Angeles Center
Sat 11:39:17 AM 34.8836 -117.3658 120° Southeast 504 580 39,000  Level Los Angeles Center
Sat 11:40:19 AM 34.8147 -117.2200 120° Southeast 501 577 39,000  Level Los Angeles Center
Sat 11:41:21 AM 34.7308 -117.0447 120° Southeast 503 579 39,000  Level Los Angeles Center
Sat 11:42:23 AM 34.6600 -116.8969 120° Southeast 507 583 39,000  Level Los Angeles Center
Sat 11:43:25 AM 34.5883 -116.7494 121° Southeast 508 585 39,000  Level Los Angeles Center
Sat 11:44:27 AM 34.5164 -116.6003 120° Southeast 512 589 39,000  Level Los Angeles Center
Sat 11:45:29 AM 34.4436 -116.4506 120° Southeast 516 594 39,000  Level Los Angeles Center
Sat 11:46:31 AM 34.3706 -116.3017 121° Southeast 516 594 39,000  Level Los Angeles Center
Sat 11:47:33 AM 34.2861 -116.1303 121° Southeast 498 573 39,000  Level Los Angeles Center
Sat 11:48:35 AM 34.2158 -115.9872 121° Southeast 495 570 39,000  Level Los Angeles Center
Sat 11:49:38 AM 34.1494 -115.8553 121° Southeast 489 563 39,000  Level Los Angeles Center
Sat 11:50:40 AM 34.0800 -115.7150 121° Southeast 487 560 39,000  Level Los Angeles Center
Sat 11:51:42 AM 33.9953 -115.5500 122° Southeast 481 554 39,000  Level Los Angeles Center
Sat 11:52:44 AM 33.9250 -115.4097 121° Southeast 486 559 39,000  Level Los Angeles Center
Sat 11:53:46 AM 33.8556 -115.2722 121° Southeast 482 555 39,000  Level Los Angeles Center
Sat 11:54:48 AM 33.7842 -115.1347 122° Southeast 483 556 39,000  Level Los Angeles Center
Sat 11:55:50 AM 33.7183 -114.9950 120° Southeast 480 552 39,000 -484 Level Los Angeles Center
Sat 11:56:52 AM 33.6783 -114.8486 108° East 462 532 38,000 -1,984 Descending Los Angeles Center
Sat 11:57:54 AM 33.6294 -114.6728 108° East 465 535 34,900 -2,903 Descending Los Angeles Center
Sat 11:58:56 AM 33.5867 -114.5247 109° East 472 543 32,000 -2,565 Descending Los Angeles Center
Sat 11:59:58 AM 33.5478 -114.3803 108° East 459 528 29,600 -2,315 Descending Los Angeles Center
Sat 12:01:03 PM 33.5039 -114.2269 109° East 453 521 27,100 -2,126 Descending Albuquerque Center
Sat 12:02:05 PM 33.4656 -114.0925 109° East 441 507 25,100 -1,016 Descending Albuquerque Center
Sat 12:03:07 PM 33.4350 -113.9578 105° East 428 493 25,000 -48 Descending Albuquerque Center
Sat 12:04:09 PM 33.4078 -113.8175 103° East 427 491 25,000 -339 Level Albuquerque Center
Sat 12:05:11 PM 33.3794 -113.6792 104° East 428 493 24,300 -1,500 Descending Albuquerque Center
Sat 12:06:13 PM 33.3483 -113.5172 103° East 423 487 21,900 -2,177 Descending Albuquerque Center
Sat 12:07:15 PM 33.3214 -113.3836 104° East 418 481 19,800 -2,032 Descending Albuquerque Center
Sat 12:08:17 PM 33.2942 -113.2506 104° East 414 476 17,700 -2,032 Descending Albuquerque Center
Sat 12:09:19 PM 33.2739 -113.1269 101° East 393 452 15,600 -1,742 Descending Albuquerque Center
Sat 12:10:21 PM 33.2756 -113.0083 89° East 362 417 14,100 -1,536 Descending Albuquerque Center
Sat 12:11:24 PM 33.2789 -112.8969 88° East 342 394 12,400 -1,392 Descending Albuquerque Center
Sat 12:12:26 PM 33.2875 -112.7953 84° East 319 367 11,200 -1,210 Descending Albuquerque Center
Sat 12:13:28 PM 33.3269 -112.6933 65° Northeast 287 330 9,900 -919 Descending Albuquerque Center
Sat 12:14:30 PM 33.3567 -112.6131 66° East 271 312 9,300 -774 Descending Albuquerque Center
Sat 12:15:32 PM 33.3867 -112.5408 64° Northeast 259 298 8,300 -629 Descending Albuquerque Center
Sat 12:16:34 PM 33.4128 -112.4669 67° East 244 281 8,000 -484 Descending Albuquerque Center
Sat 12:17:36 PM 33.4378 -112.3911 68° East 245 282 7,300 -1,113 Descending Albuquerque Center
Sat 12:18:38 PM 33.4406 -112.3014 88° East 225 259 5,700 -1,452 Descending Albuquerque Center
Sat 12:19:40 PM 33.4408 -112.2286 90° East 220 253 4,300 -1,161 Descending Albuquerque Center
Sat 12:20:42 PM 33.4408 -112.1625 90° East 203 234 3,300 -968 Descending Albuquerque Center
Sat 12:21:44 PM 33.4406 -112.1042 90° East 182 209 2,300 -823 Descending Albuquerque Center
Sat 12:22:46 PM 33.4408 -112.0561 90° East 153 176 1,600 -629 Descending Albuquerque Center
Sat 12:23:48 PM 33.4417 -112.0050 89° East 140 161 1,000 -581 Descending Albuquerque Center
Sat 12:25:00 PM 33.4333 -112.0000 North  Level FlightAware Approximate
Sat 12:32:00 PM 33.4343 -112.0116 North  Level Estimated
Sat 12:33:00 PM 33.4343 -112.0116 North  Level Estimated
Sat 12:34:00 PM 33.4343 -112.0116 North  Level Estimated
Sat 12:35:00 PM 33.4343 -112.0116 North  Level Estimated
Sat 12:36:00 PM 33.4343 -112.0116 North  Level Estimated
Sat 12:37:00 PM 33.4343 -112.0116 North  Level Estimated
Sat 12:38:00 PM 33.4343 -112.0116 North  Level Estimated
Sat 12:39:00 PM 33.4343 -112.0116 North  Level Estimated
Sat 12:40:00 PM 33.4343 -112.0116 North  Level Estimated

Login

Don't have an account? Register now (free) for customized features, flight alerts, and more!